AirNav   Duncan Aviation - Near you to keep you flying
 
 1441 users online  

ME47 Payne Field Airport
Hartland, Maine, USA

GOING TO HARTLAND?


FAA INFORMATION EFFECTIVE 02 DECEMBER 2021

Location

FAA Identifier: ME47
Lat/Long: 44-51-16.2200N 069-27-23.1710W
44-51.270333N 069-27.386183W
44.8545056,-69.4564364
(estimated)
Elevation: 350 ft. / 107 m (estimated)
Variation: 18W (1990)
From city: 2 miles S of HARTLAND, ME
Time zone: UTC -5 (UTC -4 during Daylight Saving Time)
Zip code: 04943

Airport Operations

Airport use: Private use. Permission required prior to landing
Activation date: 12/1991
Control tower: no
ARTCC: BOSTON CENTER
FSS: BANGOR FLIGHT SERVICE STATION
Attendance: UNATNDD
Segmented circle: no

Airport Communications

WX AWOS-AV at OWK (19 nm SW): 123.075

Nearby radio navigation aids

VOR radial/distance  VOR name  Freq  Var
BGRr291/24.8BANGOR VORTAC114.8019W
AUGr042/35.2AUGUSTA VOR/DME114.9518W

 
NDB name  Hdg/Dist  Freq  Var  ID
BURNHAM354/10.334818WBUP -... ..- .--.

Airport Services

Runway Information

Runway 1/19

Dimensions: 2300 x 100 ft. / 701 x 30 m
Surface: turf
RUNWAY 1  RUNWAY 19
Traffic pattern: leftleft

Airport Ownership and Management from official FAA records

Ownership: Privately-owned
Owner: JAY K. PAYNE
282 FORD HILL RD
HARTLAND, ME 04943
Phone 207-949-4877
Manager: JAY K. PAYNE
282 FORD HILL RD
HARTLAND, ME 04943
Phone 207-949-4877

Airport Operational Statistics

Aircraft based on the field: 2
Single engine airplanes: 2
    

Additional Remarks

FOR CD CTC BANGOR APCH AT 207-561-2521.

Instrument Procedures

There are no published instrument procedures at ME47.

Some nearby airports with instrument procedures:

2B7 - Pittsfield Municipal Airport (6 nm SE)
1B0 - Dexter Regional Airport (13 nm NE)
KOWK - Central Maine /Norridgewock Airport (19 nm SW)
KWVL - Waterville Robert LaFleur Airport (21 nm SW)
KBGR - Bangor International Airport (27 nm E)
 
Loc | Ops | Rwys | IFR | FBO | Links
Com | Nav | Svcs | Stats | Notes
Area around ME47 (Payne Field Airport)
 
Road maps at: MapQuest Bing Google
 
Aerial photo
No photo
 
Sectional chart

 
Airport distance calculator
Flying to Payne Field Airport? Find the distance to fly.

From to ME47

Sunrise and sunset
Times for 03-Dec-2021
 Local
(UTC-5)
 Zulu
(UTC)
Morning civil twilight06:2511:25
Sunrise06:5911:59
Sunset15:5720:57
Evening civil twilight16:3021:30

Current date and time
Zulu (UTC)  03-Dec-2021 19:55:05
Local (UTC-5)  03-Dec-2021 14:55:05
 
METAR
KWVL 
22nm SW 
031856Z AUTO 30010G18KT 10SM CLR M01/M09 A2966 RMK AO2 PK WND 29026/1833 SLP075 T10061094 FZRANO
KBGR 
27nm E 
031853Z 31014G24KT 10SM FEW050 FEW150 M01/M12 A2964 RMK AO2 PK WND 32031/1758 SLP039 T10061117
KAUG 
35nm SW 
031853Z AUTO 30017G33KT 10SM CLR 00/M12 A2969 RMK AO2 PK WND 30033/1851 SLP059 T00001122
KGNR 
37nm N 
031856Z AUTO 30017G29KT M06/M12 A2956 RMK AO1 PK WND 31030/1846 SLP030 T10561122
TAF
KBGR 
27nm E 
031720Z 0318/0418 29016G31KT P6SM BKN040 FM032100 30014G27KT P6SM SCT040 FM032300 30012G21KT P6SM SCT040 FM040300 30009KT P6SM SCT100
NOTAMs
Click for the latest NOTAMs
NOTAMs are issued by the DoD/FAA and will open in a separate window not controlled by AirNav.

 

 
 

Would you like to see your business listed on this page?

 If your business provides an interesting product or service to pilots, flight crews, aircraft, or users of the Payne Field Airport, you should consider listing it here.  To start the listing process, click on the button below
 
Add a business
 

Other Pages about Payne Field Airport

Update a link
 
Copyright © AirNav, LLC. All rights reserved. Privacy Policy  Contact